sensor_id;sensor_type;location;lat;lon;timestamp;P1;durP1;ratioP1;P2;durP2;ratioP2
75603;SDS011;64187;51.010;13.792;2023-06-19T00:02:02;9.18;;;7.85;;
75603;SDS011;64187;51.010;13.792;2023-06-19T00:07:01;11.00;;;8.75;;
75603;SDS011;64187;51.010;13.792;2023-06-19T00:12:00;10.40;;;8.68;;
75603;SDS011;64187;51.010;13.792;2023-06-19T00:17:00;9.20;;;8.18;;
75603;SDS011;64187;51.010;13.792;2023-06-19T00:21:59;10.10;;;8.43;;
75603;SDS011;64187;51.010;13.792;2023-06-19T00:26:58;9.00;;;7.85;;
75603;SDS011;64187;51.010;13.792;2023-06-19T00:32:01;13.30;;;8.48;;
75603;SDS011;64187;51.010;13.792;2023-06-19T00:37:00;9.90;;;8.48;;
75603;SDS011;64187;51.010;13.792;2023-06-19T00:41:59;9.95;;;8.70;;
75603;SDS011;64187;51.010;13.792;2023-06-19T00:47:00;11.35;;;8.23;;
75603;SDS011;64187;51.010;13.792;2023-06-19T00:52:00;10.43;;;8.20;;
75603;SDS011;64187;51.010;13.792;2023-06-19T00:57:00;12.07;;;8.43;;
75603;SDS011;64187;51.010;13.792;2023-06-19T01:01:59;11.88;;;9.98;;
75603;SDS011;64187;51.010;13.792;2023-06-19T01:07:05;10.55;;;8.93;;
75603;SDS011;64187;51.010;13.792;2023-06-19T01:12:19;11.60;;;9.35;;
75603;SDS011;64187;51.010;13.792;2023-06-19T01:17:21;11.02;;;9.43;;
75603;SDS011;64187;51.010;13.792;2023-06-19T01:27:29;11.45;;;9.68;;
75603;SDS011;64187;51.010;13.792;2023-06-19T01:37:47;11.00;;;9.32;;
75603;SDS011;64187;51.010;13.792;2023-06-19T01:42:48;11.10;;;9.65;;
75603;SDS011;64187;51.010;13.792;2023-06-19T01:47:47;11.23;;;8.80;;
75603;SDS011;64187;51.010;13.792;2023-06-19T01:52:47;11.80;;;10.60;;
75603;SDS011;64187;51.010;13.792;2023-06-19T01:57:45;10.48;;;8.70;;
75603;SDS011;64187;51.010;13.792;2023-06-19T02:02:44;10.77;;;9.38;;
75603;SDS011;64187;51.010;13.792;2023-06-19T02:07:43;11.05;;;9.30;;
75603;SDS011;64187;51.010;13.792;2023-06-19T02:12:42;11.68;;;9.57;;
75603;SDS011;64187;51.010;13.792;2023-06-19T02:17:41;10.80;;;9.50;;
75603;SDS011;64187;51.010;13.792;2023-06-19T02:22:41;11.68;;;9.30;;
75603;SDS011;64187;51.010;13.792;2023-06-19T02:27:40;10.52;;;9.18;;
75603;SDS011;64187;51.010;13.792;2023-06-19T02:32:39;11.65;;;9.25;;
75603;SDS011;64187;51.010;13.792;2023-06-19T02:37:38;12.20;;;8.95;;
75603;SDS011;64187;51.010;13.792;2023-06-19T02:42:38;11.85;;;9.05;;
75603;SDS011;64187;51.010;13.792;2023-06-19T02:47:37;12.02;;;10.00;;
75603;SDS011;64187;51.010;13.792;2023-06-19T02:52:36;12.18;;;9.52;;
75603;SDS011;64187;51.010;13.792;2023-06-19T02:57:35;10.57;;;9.25;;
75603;SDS011;64187;51.010;13.792;2023-06-19T03:02:34;11.23;;;9.40;;
75603;SDS011;64187;51.010;13.792;2023-06-19T03:07:33;10.65;;;9.35;;
75603;SDS011;64187;51.010;13.792;2023-06-19T03:12:33;13.20;;;9.30;;
75603;SDS011;64187;51.010;13.792;2023-06-19T03:17:32;10.85;;;9.57;;
75603;SDS011;64187;51.010;13.792;2023-06-19T03:22:33;12.40;;;9.50;;
75603;SDS011;64187;51.010;13.792;2023-06-19T03:27:32;12.20;;;10.10;;
75603;SDS011;64187;51.010;13.792;2023-06-19T03:32:32;12.00;;;9.82;;
75603;SDS011;64187;51.010;13.792;2023-06-19T03:37:32;12.05;;;9.05;;
75603;SDS011;64187;51.010;13.792;2023-06-19T03:42:33;11.77;;;9.32;;
75603;SDS011;64187;51.010;13.792;2023-06-19T03:47:33;15.05;;;10.25;;
75603;SDS011;64187;51.010;13.792;2023-06-19T03:52:33;14.50;;;9.55;;
75603;SDS011;64187;51.010;13.792;2023-06-19T03:57:31;10.38;;;9.15;;
75603;SDS011;64187;51.010;13.792;2023-06-19T04:02:30;11.43;;;9.35;;
75603;SDS011;64187;51.010;13.792;2023-06-19T04:07:30;10.52;;;9.43;;
75603;SDS011;64187;51.010;13.792;2023-06-19T04:12:30;13.43;;;9.93;;
75603;SDS011;64187;51.010;13.792;2023-06-19T04:17:29;11.27;;;9.23;;
75603;SDS011;64187;51.010;13.792;2023-06-19T04:22:28;12.00;;;9.52;;
75603;SDS011;64187;51.010;13.792;2023-06-19T04:27:39;11.35;;;9.23;;
75603;SDS011;64187;51.010;13.792;2023-06-19T04:32:38;9.80;;;6.53;;
75603;SDS011;64187;51.010;13.792;2023-06-19T04:37:40;8.10;;;6.68;;
75603;SDS011;64187;51.010;13.792;2023-06-19T04:42:39;8.73;;;7.55;;
75603;SDS011;64187;51.010;13.792;2023-06-19T04:47:38;8.73;;;7.88;;
75603;SDS011;64187;51.010;13.792;2023-06-19T04:52:50;9.45;;;7.50;;
75603;SDS011;64187;51.010;13.792;2023-06-19T04:57:50;8.93;;;7.70;;
75603;SDS011;64187;51.010;13.792;2023-06-19T05:02:49;10.27;;;7.88;;
75603;SDS011;64187;51.010;13.792;2023-06-19T05:07:49;13.38;;;8.93;;
75603;SDS011;64187;51.010;13.792;2023-06-19T05:12:47;10.00;;;8.95;;
75603;SDS011;64187;51.010;13.792;2023-06-19T05:17:46;10.18;;;8.13;;
75603;SDS011;64187;51.010;13.792;2023-06-19T05:22:45;12.60;;;8.50;;
75603;SDS011;64187;51.010;13.792;2023-06-19T05:27:45;9.15;;;7.82;;
75603;SDS011;64187;51.010;13.792;2023-06-19T05:32:43;10.73;;;8.60;;
75603;SDS011;64187;51.010;13.792;2023-06-19T05:37:43;10.43;;;8.57;;
75603;SDS011;64187;51.010;13.792;2023-06-19T05:42:42;9.05;;;8.15;;
75603;SDS011;64187;51.010;13.792;2023-06-19T05:47:41;11.68;;;8.50;;
75603;SDS011;64187;51.010;13.792;2023-06-19T05:52:40;11.23;;;8.63;;
75603;SDS011;64187;51.010;13.792;2023-06-19T05:57:42;8.88;;;7.90;;
75603;SDS011;64187;51.010;13.792;2023-06-19T06:02:41;10.57;;;9.48;;
75603;SDS011;64187;51.010;13.792;2023-06-19T06:07:40;9.95;;;8.38;;
75603;SDS011;64187;51.010;13.792;2023-06-19T06:12:39;10.85;;;8.50;;
75603;SDS011;64187;51.010;13.792;2023-06-19T06:17:38;10.73;;;8.30;;
75603;SDS011;64187;51.010;13.792;2023-06-19T06:22:40;9.88;;;8.20;;
75603;SDS011;64187;51.010;13.792;2023-06-19T06:27:41;12.38;;;8.43;;
75603;SDS011;64187;51.010;13.792;2023-06-19T06:32:40;11.00;;;9.02;;
75603;SDS011;64187;51.010;13.792;2023-06-19T06:37:39;11.45;;;8.07;;
75603;SDS011;64187;51.010;13.792;2023-06-19T06:42:39;10.88;;;8.27;;
75603;SDS011;64187;51.010;13.792;2023-06-19T06:47:38;9.00;;;8.10;;
75603;SDS011;64187;51.010;13.792;2023-06-19T06:52:38;11.70;;;8.40;;
75603;SDS011;64187;51.010;13.792;2023-06-19T06:57:38;10.27;;;8.20;;
75603;SDS011;64187;51.010;13.792;2023-06-19T07:02:37;8.50;;;7.50;;
75603;SDS011;64187;51.010;13.792;2023-06-19T07:07:38;10.48;;;9.00;;
75603;SDS011;64187;51.010;13.792;2023-06-19T07:12:44;8.77;;;7.88;;
75603;SDS011;64187;51.010;13.792;2023-06-19T07:17:44;10.15;;;7.90;;
75603;SDS011;64187;51.010;13.792;2023-06-19T07:22:44;10.60;;;8.27;;
75603;SDS011;64187;51.010;13.792;2023-06-19T07:27:43;22.08;;;7.90;;
75603;SDS011;64187;51.010;13.792;2023-06-19T07:32:42;8.68;;;7.78;;
75603;SDS011;64187;51.010;13.792;2023-06-19T07:37:41;8.82;;;7.32;;
75603;SDS011;64187;51.010;13.792;2023-06-19T07:42:40;9.55;;;7.40;;
75603;SDS011;64187;51.010;13.792;2023-06-19T07:47:42;9.63;;;7.82;;
75603;SDS011;64187;51.010;13.792;2023-06-19T07:52:41;9.73;;;8.13;;
75603;SDS011;64187;51.010;13.792;2023-06-19T07:57:40;9.70;;;7.70;;
75603;SDS011;64187;51.010;13.792;2023-06-19T08:02:39;9.40;;;7.03;;
75603;SDS011;64187;51.010;13.792;2023-06-19T08:07:39;8.13;;;7.32;;
75603;SDS011;64187;51.010;13.792;2023-06-19T08:12:38;10.35;;;7.97;;
75603;SDS011;64187;51.010;13.792;2023-06-19T08:17:39;9.05;;;7.50;;
75603;SDS011;64187;51.010;13.792;2023-06-19T08:22:39;8.27;;;7.20;;
75603;SDS011;64187;51.010;13.792;2023-06-19T08:27:38;8.85;;;7.70;;
75603;SDS011;64187;51.010;13.792;2023-06-19T08:32:37;11.02;;;7.75;;
75603;SDS011;64187;51.010;13.792;2023-06-19T08:37:36;8.25;;;7.45;;
75603;SDS011;64187;51.010;13.792;2023-06-19T08:42:35;9.48;;;7.55;;
75603;SDS011;64187;51.010;13.792;2023-06-19T08:47:35;8.45;;;7.57;;
75603;SDS011;64187;51.010;13.792;2023-06-19T08:52:34;8.50;;;7.28;;
75603;SDS011;64187;51.010;13.792;2023-06-19T08:57:38;10.07;;;7.93;;
75603;SDS011;64187;51.010;13.792;2023-06-19T09:02:42;9.60;;;7.78;;
75603;SDS011;64187;51.010;13.792;2023-06-19T09:07:58;8.82;;;7.93;;
75603;SDS011;64187;51.010;13.792;2023-06-19T09:13:03;12.32;;;7.63;;
75603;SDS011;64187;51.010;13.792;2023-06-19T09:18:03;9.93;;;8.55;;
75603;SDS011;64187;51.010;13.792;2023-06-19T09:23:04;9.38;;;7.93;;
75603;SDS011;64187;51.010;13.792;2023-06-19T09:28:03;9.07;;;8.13;;
75603;SDS011;64187;51.010;13.792;2023-06-19T09:33:06;10.60;;;8.13;;
75603;SDS011;64187;51.010;13.792;2023-06-19T09:38:06;9.55;;;8.55;;
75603;SDS011;64187;51.010;13.792;2023-06-19T09:43:05;10.52;;;8.27;;
75603;SDS011;64187;51.010;13.792;2023-06-19T09:48:05;9.43;;;8.35;;
75603;SDS011;64187;51.010;13.792;2023-06-19T09:53:29;9.95;;;8.20;;
75603;SDS011;64187;51.010;13.792;2023-06-19T09:58:29;8.70;;;7.82;;
75603;SDS011;64187;51.010;13.792;2023-06-19T10:03:30;11.48;;;8.32;;
75603;SDS011;64187;51.010;13.792;2023-06-19T10:08:42;11.90;;;8.32;;
75603;SDS011;64187;51.010;13.792;2023-06-19T10:13:42;10.90;;;8.30;;
75603;SDS011;64187;51.010;13.792;2023-06-19T10:18:45;12.52;;;8.70;;
75603;SDS011;64187;51.010;13.792;2023-06-19T10:23:57;9.35;;;7.90;;
75603;SDS011;64187;51.010;13.792;2023-06-19T10:28:57;12.25;;;9.23;;
75603;SDS011;64187;51.010;13.792;2023-06-19T10:33:56;12.43;;;8.32;;
75603;SDS011;64187;51.010;13.792;2023-06-19T10:38:56;9.70;;;8.27;;
75603;SDS011;64187;51.010;13.792;2023-06-19T10:43:55;12.45;;;9.00;;
75603;SDS011;64187;51.010;13.792;2023-06-19T10:48:59;8.98;;;8.07;;
75603;SDS011;64187;51.010;13.792;2023-06-19T10:54:00;9.57;;;8.45;;
75603;SDS011;64187;51.010;13.792;2023-06-19T10:59:03;9.77;;;8.77;;
75603;SDS011;64187;51.010;13.792;2023-06-19T11:04:22;10.90;;;7.93;;
75603;SDS011;64187;51.010;13.792;2023-06-19T11:09:22;11.13;;;9.07;;
75603;SDS011;64187;51.010;13.792;2023-06-19T11:14:21;11.25;;;9.20;;
75603;SDS011;64187;51.010;13.792;2023-06-19T11:19:21;11.25;;;9.10;;
75603;SDS011;64187;51.010;13.792;2023-06-19T11:24:22;10.52;;;8.57;;
75603;SDS011;64187;51.010;13.792;2023-06-19T11:29:23;9.25;;;8.18;;
75603;SDS011;64187;51.010;13.792;2023-06-19T11:34:31;10.50;;;9.40;;
75603;SDS011;64187;51.010;13.792;2023-06-19T11:39:35;10.05;;;8.35;;
75603;SDS011;64187;51.010;13.792;2023-06-19T11:44:34;11.60;;;8.95;;
75603;SDS011;64187;51.010;13.792;2023-06-19T11:49:36;10.30;;;8.70;;
75603;SDS011;64187;51.010;13.792;2023-06-19T11:54:35;8.55;;;7.10;;
75603;SDS011;64187;51.010;13.792;2023-06-19T11:59:34;8.52;;;7.65;;
75603;SDS011;64187;51.010;13.792;2023-06-19T12:04:33;9.10;;;8.00;;
75603;SDS011;64187;51.010;13.792;2023-06-19T12:09:33;8.98;;;8.05;;
75603;SDS011;64187;51.010;13.792;2023-06-19T12:14:33;9.23;;;7.53;;
75603;SDS011;64187;51.010;13.792;2023-06-19T12:19:32;11.27;;;8.30;;
75603;SDS011;64187;51.010;13.792;2023-06-19T12:24:31;8.15;;;7.32;;
75603;SDS011;64187;51.010;13.792;2023-06-19T12:29:30;8.73;;;7.82;;
75603;SDS011;64187;51.010;13.792;2023-06-19T12:34:29;7.68;;;6.90;;
75603;SDS011;64187;51.010;13.792;2023-06-19T12:39:29;7.97;;;7.18;;
75603;SDS011;64187;51.010;13.792;2023-06-19T12:44:28;7.75;;;6.93;;
75603;SDS011;64187;51.010;13.792;2023-06-19T12:49:27;8.27;;;7.43;;
75603;SDS011;64187;51.010;13.792;2023-06-19T12:54:26;8.20;;;7.38;;
75603;SDS011;64187;51.010;13.792;2023-06-19T12:59:25;8.25;;;7.32;;
75603;SDS011;64187;51.010;13.792;2023-06-19T13:04:24;9.13;;;8.30;;
75603;SDS011;64187;51.010;13.792;2023-06-19T13:09:23;9.45;;;8.43;;
75603;SDS011;64187;51.010;13.792;2023-06-19T13:14:23;9.73;;;8.82;;
75603;SDS011;64187;51.010;13.792;2023-06-19T13:19:21;10.07;;;9.07;;
75603;SDS011;64187;51.010;13.792;2023-06-19T13:24:21;10.52;;;8.75;;
75603;SDS011;64187;51.010;13.792;2023-06-19T13:29:20;10.63;;;9.52;;
75603;SDS011;64187;51.010;13.792;2023-06-19T13:34:19;10.18;;;9.25;;
75603;SDS011;64187;51.010;13.792;2023-06-19T13:39:20;9.95;;;8.80;;
75603;SDS011;64187;51.010;13.792;2023-06-19T13:44:18;10.75;;;9.43;;
75603;SDS011;64187;51.010;13.792;2023-06-19T13:49:17;11.73;;;9.75;;
75603;SDS011;64187;51.010;13.792;2023-06-19T13:54:16;11.90;;;10.30;;
75603;SDS011;64187;51.010;13.792;2023-06-19T13:59:15;10.07;;;8.88;;
75603;SDS011;64187;51.010;13.792;2023-06-19T14:04:14;14.40;;;10.35;;
75603;SDS011;64187;51.010;13.792;2023-06-19T14:09:13;11.02;;;9.93;;
75603;SDS011;64187;51.010;13.792;2023-06-19T14:14:12;12.13;;;10.38;;
75603;SDS011;64187;51.010;13.792;2023-06-19T14:19:11;14.68;;;9.82;;
75603;SDS011;64187;51.010;13.792;2023-06-19T14:24:09;11.00;;;9.90;;
75603;SDS011;64187;51.010;13.792;2023-06-19T14:29:09;12.85;;;10.40;;
75603;SDS011;64187;51.010;13.792;2023-06-19T14:34:07;11.43;;;9.88;;
75603;SDS011;64187;51.010;13.792;2023-06-19T14:39:06;12.57;;;11.18;;
75603;SDS011;64187;51.010;13.792;2023-06-19T14:44:05;11.63;;;10.20;;
75603;SDS011;64187;51.010;13.792;2023-06-19T14:49:09;13.13;;;11.80;;
75603;SDS011;64187;51.010;13.792;2023-06-19T14:54:11;12.82;;;11.63;;
75603;SDS011;64187;51.010;13.792;2023-06-19T14:59:11;14.60;;;11.88;;
75603;SDS011;64187;51.010;13.792;2023-06-19T15:04:10;12.15;;;10.80;;
75603;SDS011;64187;51.010;13.792;2023-06-19T15:09:09;14.93;;;12.30;;
75603;SDS011;64187;51.010;13.792;2023-06-19T15:14:08;12.52;;;11.32;;
75603;SDS011;64187;51.010;13.792;2023-06-19T15:19:07;13.32;;;11.57;;
75603;SDS011;64187;51.010;13.792;2023-06-19T15:24:06;13.70;;;11.13;;
75603;SDS011;64187;51.010;13.792;2023-06-19T15:29:06;13.20;;;11.50;;
75603;SDS011;64187;51.010;13.792;2023-06-19T15:34:15;13.25;;;11.82;;
75603;SDS011;64187;51.010;13.792;2023-06-19T15:39:14;12.75;;;11.48;;
75603;SDS011;64187;51.010;13.792;2023-06-19T15:44:16;13.43;;;11.65;;
75603;SDS011;64187;51.010;13.792;2023-06-19T15:49:15;12.88;;;11.52;;
75603;SDS011;64187;51.010;13.792;2023-06-19T15:54:16;11.75;;;10.60;;
75603;SDS011;64187;51.010;13.792;2023-06-19T15:59:15;12.43;;;11.05;;
75603;SDS011;64187;51.010;13.792;2023-06-19T16:04:13;14.73;;;11.88;;
75603;SDS011;64187;51.010;13.792;2023-06-19T16:09:12;12.35;;;11.05;;
75603;SDS011;64187;51.010;13.792;2023-06-19T16:14:11;11.98;;;10.68;;
75603;SDS011;64187;51.010;13.792;2023-06-19T16:19:10;13.57;;;11.00;;
75603;SDS011;64187;51.010;13.792;2023-06-19T16:24:09;12.40;;;11.05;;
75603;SDS011;64187;51.010;13.792;2023-06-19T16:29:08;13.32;;;10.93;;
75603;SDS011;64187;51.010;13.792;2023-06-19T16:34:07;13.07;;;11.43;;
75603;SDS011;64187;51.010;13.792;2023-06-19T16:39:06;10.20;;;9.20;;
75603;SDS011;64187;51.010;13.792;2023-06-19T16:44:06;11.75;;;10.65;;
75603;SDS011;64187;51.010;13.792;2023-06-19T16:49:04;10.57;;;9.63;;
75603;SDS011;64187;51.010;13.792;2023-06-19T16:54:03;10.27;;;9.13;;
75603;SDS011;64187;51.010;13.792;2023-06-19T16:59:02;10.80;;;9.65;;
75603;SDS011;64187;51.010;13.792;2023-06-19T17:04:04;11.98;;;10.77;;
75603;SDS011;64187;51.010;13.792;2023-06-19T17:09:03;10.48;;;9.52;;
75603;SDS011;64187;51.010;13.792;2023-06-19T17:14:02;9.05;;;8.25;;
75603;SDS011;64187;51.010;13.792;2023-06-19T17:19:01;9.55;;;8.65;;
75603;SDS011;64187;51.010;13.792;2023-06-19T17:24:02;11.02;;;9.93;;
75603;SDS011;64187;51.010;13.792;2023-06-19T17:29:01;10.55;;;9.50;;
75603;SDS011;64187;51.010;13.792;2023-06-19T17:34:03;10.73;;;9.73;;
75603;SDS011;64187;51.010;13.792;2023-06-19T17:39:02;11.13;;;10.02;;
75603;SDS011;64187;51.010;13.792;2023-06-19T17:44:02;10.52;;;9.52;;
75603;SDS011;64187;51.010;13.792;2023-06-19T17:49:02;11.38;;;9.23;;
75603;SDS011;64187;51.010;13.792;2023-06-19T17:54:01;10.45;;;9.45;;
75603;SDS011;64187;51.010;13.792;2023-06-19T17:59:03;10.48;;;9.35;;
75603;SDS011;64187;51.010;13.792;2023-06-19T18:04:02;11.27;;;9.85;;
75603;SDS011;64187;51.010;13.792;2023-06-19T18:09:01;13.57;;;9.93;;
75603;SDS011;64187;51.010;13.792;2023-06-19T18:14:04;10.63;;;9.52;;
75603;SDS011;64187;51.010;13.792;2023-06-19T18:19:03;11.57;;;10.43;;
75603;SDS011;64187;51.010;13.792;2023-06-19T18:24:01;10.15;;;8.93;;
75603;SDS011;64187;51.010;13.792;2023-06-19T18:29:02;10.77;;;9.43;;
75603;SDS011;64187;51.010;13.792;2023-06-19T18:34:01;10.93;;;9.90;;
75603;SDS011;64187;51.010;13.792;2023-06-19T18:39:00;10.98;;;9.98;;
75603;SDS011;64187;51.010;13.792;2023-06-19T18:43:59;10.38;;;9.35;;
75603;SDS011;64187;51.010;13.792;2023-06-19T18:48:58;10.93;;;9.82;;
75603;SDS011;64187;51.010;13.792;2023-06-19T18:53:57;11.50;;;10.25;;
75603;SDS011;64187;51.010;13.792;2023-06-19T18:58:56;11.77;;;10.13;;
75603;SDS011;64187;51.010;13.792;2023-06-19T19:03:55;10.18;;;9.18;;
75603;SDS011;64187;51.010;13.792;2023-06-19T19:08:54;12.45;;;10.18;;
75603;SDS011;64187;51.010;13.792;2023-06-19T19:13:55;11.77;;;9.80;;
75603;SDS011;64187;51.010;13.792;2023-06-19T19:18:54;12.07;;;10.75;;
75603;SDS011;64187;51.010;13.792;2023-06-19T19:23:53;11.10;;;10.02;;
75603;SDS011;64187;51.010;13.792;2023-06-19T19:28:52;12.13;;;10.82;;
75603;SDS011;64187;51.010;13.792;2023-06-19T19:33:50;12.75;;;11.07;;
75603;SDS011;64187;51.010;13.792;2023-06-19T19:38:49;12.15;;;10.80;;
75603;SDS011;64187;51.010;13.792;2023-06-19T19:43:48;12.38;;;10.38;;
75603;SDS011;64187;51.010;13.792;2023-06-19T19:48:47;13.10;;;11.20;;
75603;SDS011;64187;51.010;13.792;2023-06-19T19:53:46;13.27;;;11.38;;
75603;SDS011;64187;51.010;13.792;2023-06-19T19:58:45;13.02;;;11.52;;
75603;SDS011;64187;51.010;13.792;2023-06-19T20:03:43;13.82;;;11.52;;
75603;SDS011;64187;51.010;13.792;2023-06-19T20:08:44;13.07;;;11.13;;
75603;SDS011;64187;51.010;13.792;2023-06-19T20:13:43;12.50;;;10.93;;
75603;SDS011;64187;51.010;13.792;2023-06-19T20:18:42;13.15;;;11.82;;
75603;SDS011;64187;51.010;13.792;2023-06-19T20:23:41;15.35;;;11.63;;
75603;SDS011;64187;51.010;13.792;2023-06-19T20:28:40;13.10;;;11.70;;
75603;SDS011;64187;51.010;13.792;2023-06-19T20:33:39;14.00;;;12.52;;
75603;SDS011;64187;51.010;13.792;2023-06-19T20:38:38;15.23;;;12.43;;
75603;SDS011;64187;51.010;13.792;2023-06-19T20:43:37;13.57;;;12.20;;
75603;SDS011;64187;51.010;13.792;2023-06-19T20:48:36;13.68;;;12.13;;
75603;SDS011;64187;51.010;13.792;2023-06-19T20:53:35;14.88;;;12.95;;
75603;SDS011;64187;51.010;13.792;2023-06-19T20:58:34;13.95;;;11.90;;
75603;SDS011;64187;51.010;13.792;2023-06-19T21:03:33;14.30;;;12.77;;
75603;SDS011;64187;51.010;13.792;2023-06-19T21:08:32;15.95;;;11.75;;
75603;SDS011;64187;51.010;13.792;2023-06-19T21:13:32;16.80;;;12.88;;
75603;SDS011;64187;51.010;13.792;2023-06-19T21:18:31;14.88;;;12.93;;
75603;SDS011;64187;51.010;13.792;2023-06-19T21:23:30;19.50;;;15.45;;
75603;SDS011;64187;51.010;13.792;2023-06-19T21:28:28;15.98;;;14.30;;
75603;SDS011;64187;51.010;13.792;2023-06-19T21:33:30;22.95;;;17.33;;
75603;SDS011;64187;51.010;13.792;2023-06-19T21:38:31;16.98;;;14.55;;
75603;SDS011;64187;51.010;13.792;2023-06-19T21:43:30;15.68;;;13.65;;
75603;SDS011;64187;51.010;13.792;2023-06-19T21:48:29;16.52;;;13.90;;
75603;SDS011;64187;51.010;13.792;2023-06-19T21:53:28;16.67;;;13.73;;
75603;SDS011;64187;51.010;13.792;2023-06-19T21:58:29;14.45;;;13.05;;
75603;SDS011;64187;51.010;13.792;2023-06-19T22:03:28;16.58;;;13.35;;
75603;SDS011;64187;51.010;13.792;2023-06-19T22:08:27;15.15;;;13.55;;
75603;SDS011;64187;51.010;13.792;2023-06-19T22:13:40;15.02;;;13.15;;
75603;SDS011;64187;51.010;13.792;2023-06-19T22:18:39;20.05;;;13.70;;
75603;SDS011;64187;51.010;13.792;2023-06-19T22:23:38;16.30;;;13.93;;
75603;SDS011;64187;51.010;13.792;2023-06-19T22:28:37;17.02;;;13.48;;
75603;SDS011;64187;51.010;13.792;2023-06-19T22:33:36;15.75;;;13.95;;
75603;SDS011;64187;51.010;13.792;2023-06-19T22:38:36;15.65;;;13.73;;
75603;SDS011;64187;51.010;13.792;2023-06-19T22:43:35;16.10;;;13.55;;
75603;SDS011;64187;51.010;13.792;2023-06-19T22:48:34;14.02;;;12.57;;
75603;SDS011;64187;51.010;13.792;2023-06-19T22:53:34;16.77;;;13.65;;
75603;SDS011;64187;51.010;13.792;2023-06-19T22:58:33;18.05;;;14.88;;
75603;SDS011;64187;51.010;13.792;2023-06-19T23:03:32;15.02;;;13.45;;
75603;SDS011;64187;51.010;13.792;2023-06-19T23:08:31;16.85;;;14.55;;
75603;SDS011;64187;51.010;13.792;2023-06-19T23:13:30;16.77;;;13.98;;
75603;SDS011;64187;51.010;13.792;2023-06-19T23:18:29;15.48;;;13.52;;
75603;SDS011;64187;51.010;13.792;2023-06-19T23:23:28;16.05;;;13.77;;
75603;SDS011;64187;51.010;13.792;2023-06-19T23:28:28;16.48;;;13.90;;
75603;SDS011;64187;51.010;13.792;2023-06-19T23:33:30;15.02;;;13.27;;
75603;SDS011;64187;51.010;13.792;2023-06-19T23:38:29;15.40;;;13.73;;
75603;SDS011;64187;51.010;13.792;2023-06-19T23:43:28;15.35;;;12.35;;
75603;SDS011;64187;51.010;13.792;2023-06-19T23:48:27;14.88;;;13.38;;
75603;SDS011;64187;51.010;13.792;2023-06-19T23:53:26;16.73;;;13.20;;
75603;SDS011;64187;51.010;13.792;2023-06-19T23:58:24;20.55;;;14.40;;
